sensor_id;sensor_type;location;lat;lon;timestamp;P1;durP1;ratioP1;P2;durP2;ratioP2
10586;SDS011;5341;47.606;7.576;2022-11-13T00:00:44;19.52;;;14.90;;
10586;SDS011;5341;47.606;7.576;2022-11-13T00:03:31;19.13;;;15.65;;
10586;SDS011;5341;47.606;7.576;2022-11-13T00:06:17;20.23;;;16.15;;
10586;SDS011;5341;47.606;7.576;2022-11-13T00:09:09;18.80;;;16.05;;
10586;SDS011;5341;47.606;7.576;2022-11-13T00:11:57;17.98;;;15.15;;
10586;SDS011;5341;47.606;7.576;2022-11-13T00:14:43;18.23;;;15.60;;
10586;SDS011;5341;47.606;7.576;2022-11-13T00:17:30;21.73;;;14.68;;
10586;SDS011;5341;47.606;7.576;2022-11-13T00:20:16;20.23;;;14.85;;
10586;SDS011;5341;47.606;7.576;2022-11-13T00:23:03;17.33;;;13.48;;
10586;SDS011;5341;47.606;7.576;2022-11-13T00:25:50;17.05;;;13.65;;
10586;SDS011;5341;47.606;7.576;2022-11-13T00:28:37;15.65;;;13.25;;
10586;SDS011;5341;47.606;7.576;2022-11-13T00:31:23;15.27;;;13.02;;
10586;SDS011;5341;47.606;7.576;2022-11-13T00:34:11;15.48;;;12.75;;
10586;SDS011;5341;47.606;7.576;2022-11-13T00:36:57;14.55;;;11.27;;
10586;SDS011;5341;47.606;7.576;2022-11-13T00:39:44;17.08;;;12.63;;
10586;SDS011;5341;47.606;7.576;2022-11-13T00:42:34;15.55;;;11.23;;
10586;SDS011;5341;47.606;7.576;2022-11-13T00:45:21;13.68;;;11.13;;
10586;SDS011;5341;47.606;7.576;2022-11-13T00:48:08;12.60;;;10.73;;
10586;SDS011;5341;47.606;7.576;2022-11-13T00:50:56;13.55;;;10.77;;
10586;SDS011;5341;47.606;7.576;2022-11-13T00:53:46;13.60;;;10.80;;
10586;SDS011;5341;47.606;7.576;2022-11-13T00:56:33;12.35;;;10.05;;
10586;SDS011;5341;47.606;7.576;2022-11-13T00:59:21;13.23;;;9.90;;
10586;SDS011;5341;47.606;7.576;2022-11-13T01:02:08;12.85;;;10.25;;
10586;SDS011;5341;47.606;7.576;2022-11-13T01:04:56;13.38;;;9.45;;
10586;SDS011;5341;47.606;7.576;2022-11-13T01:07:42;12.35;;;9.90;;
10586;SDS011;5341;47.606;7.576;2022-11-13T01:10:28;11.98;;;9.38;;
10586;SDS011;5341;47.606;7.576;2022-11-13T01:13:15;11.32;;;9.55;;
10586;SDS011;5341;47.606;7.576;2022-11-13T01:16:05;10.88;;;9.20;;
10586;SDS011;5341;47.606;7.576;2022-11-13T01:18:53;11.35;;;9.60;;
10586;SDS011;5341;47.606;7.576;2022-11-13T01:21:41;12.40;;;9.23;;
10586;SDS011;5341;47.606;7.576;2022-11-13T01:24:27;14.90;;;10.45;;
10586;SDS011;5341;47.606;7.576;2022-11-13T01:27:13;12.02;;;9.77;;
10586;SDS011;5341;47.606;7.576;2022-11-13T01:29:59;14.23;;;9.80;;
10586;SDS011;5341;47.606;7.576;2022-11-13T01:32:47;12.25;;;10.15;;
10586;SDS011;5341;47.606;7.576;2022-11-13T01:35:34;12.65;;;9.88;;
10586;SDS011;5341;47.606;7.576;2022-11-13T01:38:20;13.88;;;10.13;;
10586;SDS011;5341;47.606;7.576;2022-11-13T01:41:07;14.50;;;9.85;;
10586;SDS011;5341;47.606;7.576;2022-11-13T01:43:59;13.73;;;10.10;;
10586;SDS011;5341;47.606;7.576;2022-11-13T01:46:47;13.02;;;10.50;;
10586;SDS011;5341;47.606;7.576;2022-11-13T01:49:39;13.75;;;11.23;;
10586;SDS011;5341;47.606;7.576;2022-11-13T01:52:31;14.77;;;10.40;;
10586;SDS011;5341;47.606;7.576;2022-11-13T01:55:21;16.40;;;11.38;;
10586;SDS011;5341;47.606;7.576;2022-11-13T01:58:08;14.48;;;11.38;;
10586;SDS011;5341;47.606;7.576;2022-11-13T02:00:56;17.02;;;12.00;;
10586;SDS011;5341;47.606;7.576;2022-11-13T02:03:42;14.25;;;11.40;;
10586;SDS011;5341;47.606;7.576;2022-11-13T02:06:32;13.90;;;10.63;;
10586;SDS011;5341;47.606;7.576;2022-11-13T02:09:23;14.55;;;11.10;;
10586;SDS011;5341;47.606;7.576;2022-11-13T02:12:13;13.57;;;10.98;;
10586;SDS011;5341;47.606;7.576;2022-11-13T02:15:02;14.60;;;11.63;;
10586;SDS011;5341;47.606;7.576;2022-11-13T02:17:52;14.45;;;11.60;;
10586;SDS011;5341;47.606;7.576;2022-11-13T02:20:42;15.05;;;12.05;;
10586;SDS011;5341;47.606;7.576;2022-11-13T02:23:39;14.43;;;11.30;;
10586;SDS011;5341;47.606;7.576;2022-11-13T02:26:33;15.10;;;11.20;;
10586;SDS011;5341;47.606;7.576;2022-11-13T02:29:21;17.58;;;12.20;;
10586;SDS011;5341;47.606;7.576;2022-11-13T02:32:09;14.45;;;11.93;;
10586;SDS011;5341;47.606;7.576;2022-11-13T02:34:56;15.55;;;10.77;;
10586;SDS011;5341;47.606;7.576;2022-11-13T02:37:42;13.73;;;10.82;;
10586;SDS011;5341;47.606;7.576;2022-11-13T02:40:29;14.18;;;11.18;;
10586;SDS011;5341;47.606;7.576;2022-11-13T02:43:17;14.93;;;11.40;;
10586;SDS011;5341;47.606;7.576;2022-11-13T02:46:03;14.75;;;11.90;;
10586;SDS011;5341;47.606;7.576;2022-11-13T02:48:50;16.05;;;12.63;;
10586;SDS011;5341;47.606;7.576;2022-11-13T02:51:36;17.17;;;12.05;;
10586;SDS011;5341;47.606;7.576;2022-11-13T02:54:25;15.48;;;11.18;;
10586;SDS011;5341;47.606;7.576;2022-11-13T02:57:11;17.33;;;11.77;;
10586;SDS011;5341;47.606;7.576;2022-11-13T02:59:58;15.75;;;11.48;;
10586;SDS011;5341;47.606;7.576;2022-11-13T03:02:44;15.30;;;11.30;;
10586;SDS011;5341;47.606;7.576;2022-11-13T03:05:31;15.38;;;11.63;;
10586;SDS011;5341;47.606;7.576;2022-11-13T03:08:17;13.05;;;10.73;;
10586;SDS011;5341;47.606;7.576;2022-11-13T03:11:05;14.93;;;10.95;;
10586;SDS011;5341;47.606;7.576;2022-11-13T03:13:53;14.50;;;11.32;;
10586;SDS011;5341;47.606;7.576;2022-11-13T03:16:42;13.73;;;11.18;;
10586;SDS011;5341;47.606;7.576;2022-11-13T03:19:28;13.52;;;11.32;;
10586;SDS011;5341;47.606;7.576;2022-11-13T03:22:14;14.93;;;11.55;;
10586;SDS011;5341;47.606;7.576;2022-11-13T03:25:00;14.25;;;11.07;;
10586;SDS011;5341;47.606;7.576;2022-11-13T03:27:47;14.13;;;11.48;;
10586;SDS011;5341;47.606;7.576;2022-11-13T03:30:33;14.20;;;11.73;;
10586;SDS011;5341;47.606;7.576;2022-11-13T03:33:20;15.05;;;11.20;;
10586;SDS011;5341;47.606;7.576;2022-11-13T03:36:07;13.40;;;11.00;;
10586;SDS011;5341;47.606;7.576;2022-11-13T03:38:53;13.02;;;10.60;;
10586;SDS011;5341;47.606;7.576;2022-11-13T03:41:39;15.02;;;11.35;;
10586;SDS011;5341;47.606;7.576;2022-11-13T03:44:26;13.68;;;11.23;;
10586;SDS011;5341;47.606;7.576;2022-11-13T03:47:13;13.73;;;10.75;;
10586;SDS011;5341;47.606;7.576;2022-11-13T03:50:02;14.10;;;11.05;;
10586;SDS011;5341;47.606;7.576;2022-11-13T03:52:50;12.57;;;10.02;;
10586;SDS011;5341;47.606;7.576;2022-11-13T03:55:39;12.73;;;10.82;;
10586;SDS011;5341;47.606;7.576;2022-11-13T03:58:27;13.60;;;9.80;;
10586;SDS011;5341;47.606;7.576;2022-11-13T04:01:13;12.02;;;10.23;;
10586;SDS011;5341;47.606;7.576;2022-11-13T04:04:01;14.10;;;10.48;;
10586;SDS011;5341;47.606;7.576;2022-11-13T04:06:51;12.85;;;10.43;;
10586;SDS011;5341;47.606;7.576;2022-11-13T04:09:38;12.18;;;10.23;;
10586;SDS011;5341;47.606;7.576;2022-11-13T04:12:24;12.73;;;10.02;;
10586;SDS011;5341;47.606;7.576;2022-11-13T04:15:11;11.82;;;10.27;;
10586;SDS011;5341;47.606;7.576;2022-11-13T04:17:57;11.15;;;9.43;;
10586;SDS011;5341;47.606;7.576;2022-11-13T04:20:44;13.20;;;9.95;;
10586;SDS011;5341;47.606;7.576;2022-11-13T04:23:32;11.35;;;9.57;;
10586;SDS011;5341;47.606;7.576;2022-11-13T04:26:20;10.63;;;9.10;;
10586;SDS011;5341;47.606;7.576;2022-11-13T04:29:06;12.15;;;10.00;;
10586;SDS011;5341;47.606;7.576;2022-11-13T04:31:53;11.55;;;9.20;;
10586;SDS011;5341;47.606;7.576;2022-11-13T04:34:40;10.55;;;9.00;;
10586;SDS011;5341;47.606;7.576;2022-11-13T04:37:27;11.40;;;9.38;;
10586;SDS011;5341;47.606;7.576;2022-11-13T04:40:17;12.88;;;10.15;;
10586;SDS011;5341;47.606;7.576;2022-11-13T04:43:03;13.63;;;9.10;;
10586;SDS011;5341;47.606;7.576;2022-11-13T04:45:51;12.63;;;9.57;;
10586;SDS011;5341;47.606;7.576;2022-11-13T04:48:38;11.48;;;8.57;;
10586;SDS011;5341;47.606;7.576;2022-11-13T04:51:25;10.30;;;8.15;;
10586;SDS011;5341;47.606;7.576;2022-11-13T04:54:12;12.15;;;9.18;;
10586;SDS011;5341;47.606;7.576;2022-11-13T04:57:00;10.52;;;8.90;;
10586;SDS011;5341;47.606;7.576;2022-11-13T04:59:49;11.10;;;8.25;;
10586;SDS011;5341;47.606;7.576;2022-11-13T05:02:36;10.55;;;8.18;;
10586;SDS011;5341;47.606;7.576;2022-11-13T05:05:28;10.35;;;8.57;;
10586;SDS011;5341;47.606;7.576;2022-11-13T05:08:14;12.00;;;8.88;;
10586;SDS011;5341;47.606;7.576;2022-11-13T05:11:01;10.77;;;8.65;;
10586;SDS011;5341;47.606;7.576;2022-11-13T05:13:51;10.32;;;8.73;;
10586;SDS011;5341;47.606;7.576;2022-11-13T05:16:37;10.85;;;8.35;;
10586;SDS011;5341;47.606;7.576;2022-11-13T05:19:31;9.68;;;8.07;;
10586;SDS011;5341;47.606;7.576;2022-11-13T05:22:22;10.20;;;7.90;;
10586;SDS011;5341;47.606;7.576;2022-11-13T05:25:12;9.15;;;7.80;;
10586;SDS011;5341;47.606;7.576;2022-11-13T05:28:16;9.70;;;7.45;;
10586;SDS011;5341;47.606;7.576;2022-11-13T05:31:05;11.00;;;8.60;;
10586;SDS011;5341;47.606;7.576;2022-11-13T05:33:54;8.57;;;7.57;;
10586;SDS011;5341;47.606;7.576;2022-11-13T05:36:43;8.75;;;7.57;;
10586;SDS011;5341;47.606;7.576;2022-11-13T05:39:30;8.82;;;7.53;;
10586;SDS011;5341;47.606;7.576;2022-11-13T05:42:18;10.10;;;7.35;;
10586;SDS011;5341;47.606;7.576;2022-11-13T05:45:05;8.63;;;7.63;;
10586;SDS011;5341;47.606;7.576;2022-11-13T05:47:54;8.63;;;7.40;;
10586;SDS011;5341;47.606;7.576;2022-11-13T05:50:42;11.13;;;7.45;;
10586;SDS011;5341;47.606;7.576;2022-11-13T05:53:31;8.52;;;7.40;;
10586;SDS011;5341;47.606;7.576;2022-11-13T05:56:21;8.18;;;6.97;;
10586;SDS011;5341;47.606;7.576;2022-11-13T05:59:09;9.35;;;7.22;;
10586;SDS011;5341;47.606;7.576;2022-11-13T06:02:01;9.02;;;7.25;;
10586;SDS011;5341;47.606;7.576;2022-11-13T06:04:50;7.93;;;7.13;;
10586;SDS011;5341;47.606;7.576;2022-11-13T06:07:37;8.20;;;6.95;;
10586;SDS011;5341;47.606;7.576;2022-11-13T06:10:27;7.85;;;6.57;;
10586;SDS011;5341;47.606;7.576;2022-11-13T06:13:18;7.60;;;6.60;;
10586;SDS011;5341;47.606;7.576;2022-11-13T06:16:06;8.35;;;7.10;;
10586;SDS011;5341;47.606;7.576;2022-11-13T06:18:56;8.30;;;7.00;;
10586;SDS011;5341;47.606;7.576;2022-11-13T06:21:54;8.45;;;7.10;;
10586;SDS011;5341;47.606;7.576;2022-11-13T06:24:44;10.00;;;7.35;;
10586;SDS011;5341;47.606;7.576;2022-11-13T06:27:34;10.27;;;7.07;;
10586;SDS011;5341;47.606;7.576;2022-11-13T06:30:24;8.05;;;6.38;;
10586;SDS011;5341;47.606;7.576;2022-11-13T06:33:21;7.93;;;6.93;;
10586;SDS011;5341;47.606;7.576;2022-11-13T06:36:10;8.57;;;7.10;;
10586;SDS011;5341;47.606;7.576;2022-11-13T06:39:07;7.80;;;6.60;;
10586;SDS011;5341;47.606;7.576;2022-11-13T06:41:58;8.82;;;6.97;;
10586;SDS011;5341;47.606;7.576;2022-11-13T06:44:46;7.35;;;6.55;;
10586;SDS011;5341;47.606;7.576;2022-11-13T06:47:35;7.28;;;6.38;;
10586;SDS011;5341;47.606;7.576;2022-11-13T06:50:22;7.55;;;6.65;;
10586;SDS011;5341;47.606;7.576;2022-11-13T06:53:09;6.72;;;5.60;;
10586;SDS011;5341;47.606;7.576;2022-11-13T06:56:00;6.93;;;5.90;;
10586;SDS011;5341;47.606;7.576;2022-11-13T06:58:50;7.60;;;6.38;;
10586;SDS011;5341;47.606;7.576;2022-11-13T07:01:38;7.07;;;6.28;;
10586;SDS011;5341;47.606;7.576;2022-11-13T07:04:24;6.88;;;6.00;;
10586;SDS011;5341;47.606;7.576;2022-11-13T07:07:11;6.10;;;5.18;;
10586;SDS011;5341;47.606;7.576;2022-11-13T07:09:57;7.20;;;5.60;;
10586;SDS011;5341;47.606;7.576;2022-11-13T07:12:45;7.22;;;6.38;;
10586;SDS011;5341;47.606;7.576;2022-11-13T07:15:33;6.38;;;5.65;;
10586;SDS011;5341;47.606;7.576;2022-11-13T07:18:19;6.07;;;5.40;;
10586;SDS011;5341;47.606;7.576;2022-11-13T07:21:07;6.45;;;5.65;;
10586;SDS011;5341;47.606;7.576;2022-11-13T07:23:55;6.85;;;5.85;;
10586;SDS011;5341;47.606;7.576;2022-11-13T07:26:41;6.47;;;5.30;;
10586;SDS011;5341;47.606;7.576;2022-11-13T07:29:31;7.35;;;6.25;;
10586;SDS011;5341;47.606;7.576;2022-11-13T07:32:19;5.88;;;5.10;;
10586;SDS011;5341;47.606;7.576;2022-11-13T07:35:05;6.10;;;5.32;;
10586;SDS011;5341;47.606;7.576;2022-11-13T07:37:54;6.05;;;5.45;;
10586;SDS011;5341;47.606;7.576;2022-11-13T07:40:40;6.18;;;5.57;;
10586;SDS011;5341;47.606;7.576;2022-11-13T07:43:26;5.72;;;5.07;;
10586;SDS011;5341;47.606;7.576;2022-11-13T07:46:14;6.50;;;5.82;;
10586;SDS011;5341;47.606;7.576;2022-11-13T07:49:01;6.68;;;5.45;;
10586;SDS011;5341;47.606;7.576;2022-11-13T07:51:47;6.65;;;5.65;;
10586;SDS011;5341;47.606;7.576;2022-11-13T07:54:34;6.47;;;5.82;;
10586;SDS011;5341;47.606;7.576;2022-11-13T07:57:21;7.20;;;6.45;;
10586;SDS011;5341;47.606;7.576;2022-11-13T08:00:07;6.88;;;6.18;;
10586;SDS011;5341;47.606;7.576;2022-11-13T08:02:56;6.57;;;5.70;;
10586;SDS011;5341;47.606;7.576;2022-11-13T08:05:43;6.65;;;5.68;;
10586;SDS011;5341;47.606;7.576;2022-11-13T08:08:30;6.65;;;5.75;;
10586;SDS011;5341;47.606;7.576;2022-11-13T08:11:16;6.40;;;5.65;;
10586;SDS011;5341;47.606;7.576;2022-11-13T08:14:02;5.75;;;5.15;;
10586;SDS011;5341;47.606;7.576;2022-11-13T08:16:49;6.45;;;5.75;;
10586;SDS011;5341;47.606;7.576;2022-11-13T08:19:36;6.32;;;5.72;;
10586;SDS011;5341;47.606;7.576;2022-11-13T08:22:23;6.10;;;5.50;;
10586;SDS011;5341;47.606;7.576;2022-11-13T08:25:11;6.80;;;5.15;;
10586;SDS011;5341;47.606;7.576;2022-11-13T08:27:58;5.57;;;4.93;;
10586;SDS011;5341;47.606;7.576;2022-11-13T08:30:46;6.35;;;5.18;;
10586;SDS011;5341;47.606;7.576;2022-11-13T08:33:33;5.43;;;4.93;;
10586;SDS011;5341;47.606;7.576;2022-11-13T08:36:23;5.63;;;4.60;;
10586;SDS011;5341;47.606;7.576;2022-11-13T08:39:11;5.45;;;4.95;;
10586;SDS011;5341;47.606;7.576;2022-11-13T08:42:02;6.15;;;5.40;;
10586;SDS011;5341;47.606;7.576;2022-11-13T08:44:54;5.45;;;4.88;;
10586;SDS011;5341;47.606;7.576;2022-11-13T08:47:43;5.88;;;5.28;;
10586;SDS011;5341;47.606;7.576;2022-11-13T08:50:35;5.95;;;4.75;;
10586;SDS011;5341;47.606;7.576;2022-11-13T08:53:26;5.65;;;4.95;;
10586;SDS011;5341;47.606;7.576;2022-11-13T08:56:13;6.05;;;5.10;;
10586;SDS011;5341;47.606;7.576;2022-11-13T08:59:00;4.55;;;4.13;;
10586;SDS011;5341;47.606;7.576;2022-11-13T09:01:47;4.88;;;4.47;;
10586;SDS011;5341;47.606;7.576;2022-11-13T09:04:35;4.93;;;4.18;;
10586;SDS011;5341;47.606;7.576;2022-11-13T09:07:22;4.85;;;4.35;;
10586;SDS011;5341;47.606;7.576;2022-11-13T09:10:09;4.80;;;4.32;;
10586;SDS011;5341;47.606;7.576;2022-11-13T09:12:56;5.20;;;4.50;;
10586;SDS011;5341;47.606;7.576;2022-11-13T09:15:44;4.43;;;4.03;;
10586;SDS011;5341;47.606;7.576;2022-11-13T09:18:31;4.95;;;4.45;;
10586;SDS011;5341;47.606;7.576;2022-11-13T09:21:17;4.75;;;4.22;;
10586;SDS011;5341;47.606;7.576;2022-11-13T09:24:04;5.05;;;4.55;;
10586;SDS011;5341;47.606;7.576;2022-11-13T09:26:52;5.30;;;4.75;;
10586;SDS011;5341;47.606;7.576;2022-11-13T09:29:39;6.95;;;4.85;;
10586;SDS011;5341;47.606;7.576;2022-11-13T09:32:26;5.43;;;4.32;;
10586;SDS011;5341;47.606;7.576;2022-11-13T09:35:12;5.35;;;4.68;;
10586;SDS011;5341;47.606;7.576;2022-11-13T09:37:58;5.18;;;4.65;;
10586;SDS011;5341;47.606;7.576;2022-11-13T09:40:47;4.97;;;4.43;;
10586;SDS011;5341;47.606;7.576;2022-11-13T09:43:40;5.00;;;4.50;;
10586;SDS011;5341;47.606;7.576;2022-11-13T09:46:37;4.88;;;4.30;;
10586;SDS011;5341;47.606;7.576;2022-11-13T09:49:27;5.68;;;4.10;;
10586;SDS011;5341;47.606;7.576;2022-11-13T09:52:18;4.15;;;3.65;;
10586;SDS011;5341;47.606;7.576;2022-11-13T09:55:15;4.70;;;3.97;;
10586;SDS011;5341;47.606;7.576;2022-11-13T09:58:03;4.07;;;3.67;;
10586;SDS011;5341;47.606;7.576;2022-11-13T10:01:08;4.28;;;3.85;;
10586;SDS011;5341;47.606;7.576;2022-11-13T10:04:07;4.10;;;3.58;;
10586;SDS011;5341;47.606;7.576;2022-11-13T10:07:00;4.63;;;3.92;;
10586;SDS011;5341;47.606;7.576;2022-11-13T10:10:00;3.80;;;3.47;;
10586;SDS011;5341;47.606;7.576;2022-11-13T10:13:02;4.13;;;3.58;;
10586;SDS011;5341;47.606;7.576;2022-11-13T10:15:51;4.28;;;3.88;;
10586;SDS011;5341;47.606;7.576;2022-11-13T10:18:43;3.88;;;3.47;;
10586;SDS011;5341;47.606;7.576;2022-11-13T10:21:34;4.15;;;3.75;;
10586;SDS011;5341;47.606;7.576;2022-11-13T10:24:25;4.25;;;3.47;;
10586;SDS011;5341;47.606;7.576;2022-11-13T10:27:13;3.92;;;3.55;;
10586;SDS011;5341;47.606;7.576;2022-11-13T10:30:00;3.75;;;3.35;;
10586;SDS011;5341;47.606;7.576;2022-11-13T10:32:47;3.92;;;3.53;;
10586;SDS011;5341;47.606;7.576;2022-11-13T10:35:42;4.25;;;3.63;;
10586;SDS011;5341;47.606;7.576;2022-11-13T10:38:38;3.95;;;3.53;;
10586;SDS011;5341;47.606;7.576;2022-11-13T10:41:29;4.95;;;3.70;;
10586;SDS011;5341;47.606;7.576;2022-11-13T10:44:23;4.78;;;3.28;;
10586;SDS011;5341;47.606;7.576;2022-11-13T10:47:12;4.00;;;3.40;;
10586;SDS011;5341;47.606;7.576;2022-11-13T10:50:08;3.85;;;3.42;;
10586;SDS011;5341;47.606;7.576;2022-11-13T10:52:57;3.58;;;3.28;;
10586;SDS011;5341;47.606;7.576;2022-11-13T10:55:44;3.97;;;3.58;;
10586;SDS011;5341;47.606;7.576;2022-11-13T10:58:34;3.60;;;3.30;;
10586;SDS011;5341;47.606;7.576;2022-11-13T11:01:21;4.30;;;3.40;;
10586;SDS011;5341;47.606;7.576;2022-11-13T11:04:11;4.00;;;3.38;;
10586;SDS011;5341;47.606;7.576;2022-11-13T11:07:03;3.97;;;3.53;;
10586;SDS011;5341;47.606;7.576;2022-11-13T11:09:58;3.42;;;3.13;;
10586;SDS011;5341;47.606;7.576;2022-11-13T11:12:51;4.82;;;3.72;;
10586;SDS011;5341;47.606;7.576;2022-11-13T11:15:40;3.58;;;3.15;;
10586;SDS011;5341;47.606;7.576;2022-11-13T11:18:32;3.65;;;3.35;;
10586;SDS011;5341;47.606;7.576;2022-11-13T11:21:24;3.55;;;3.25;;
10586;SDS011;5341;47.606;7.576;2022-11-13T11:24:14;3.80;;;3.22;;
10586;SDS011;5341;47.606;7.576;2022-11-13T11:27:08;3.42;;;2.97;;
10586;SDS011;5341;47.606;7.576;2022-11-13T11:30:01;3.85;;;3.10;;
10586;SDS011;5341;47.606;7.576;2022-11-13T11:32:52;4.03;;;3.15;;
10586;SDS011;5341;47.606;7.576;2022-11-13T11:35:52;3.30;;;3.00;;
10586;SDS011;5341;47.606;7.576;2022-11-13T11:38:47;3.40;;;3.10;;
10586;SDS011;5341;47.606;7.576;2022-11-13T11:41:39;3.20;;;2.90;;
10586;SDS011;5341;47.606;7.576;2022-11-13T11:44:35;3.60;;;3.25;;
10586;SDS011;5341;47.606;7.576;2022-11-13T11:47:27;3.42;;;3.13;;
10586;SDS011;5341;47.606;7.576;2022-11-13T11:50:26;3.20;;;2.85;;
10586;SDS011;5341;47.606;7.576;2022-11-13T11:53:23;3.65;;;3.17;;
10586;SDS011;5341;47.606;7.576;2022-11-13T11:56:19;3.13;;;2.88;;
10586;SDS011;5341;47.606;7.576;2022-11-13T11:59:22;3.47;;;2.92;;
10586;SDS011;5341;47.606;7.576;2022-11-13T12:05:39;3.35;;;2.95;;
10586;SDS011;5341;47.606;7.576;2022-11-13T12:08:31;3.78;;;3.20;;
10586;SDS011;5341;47.606;7.576;2022-11-13T12:11:23;3.50;;;3.20;;
10586;SDS011;5341;47.606;7.576;2022-11-13T12:14:15;3.50;;;3.20;;
10586;SDS011;5341;47.606;7.576;2022-11-13T12:17:16;3.88;;;3.38;;
10586;SDS011;5341;47.606;7.576;2022-11-13T12:20:17;3.50;;;3.13;;
10586;SDS011;5341;47.606;7.576;2022-11-13T12:23:16;4.45;;;3.10;;
10586;SDS011;5341;47.606;7.576;2022-11-13T12:26:16;3.63;;;3.28;;
10586;SDS011;5341;47.606;7.576;2022-11-13T12:32:24;3.97;;;3.42;;
10586;SDS011;5341;47.606;7.576;2022-11-13T12:35:19;4.07;;;3.30;;
10586;SDS011;5341;47.606;7.576;2022-11-13T12:38:10;3.85;;;3.25;;
10586;SDS011;5341;47.606;7.576;2022-11-13T12:41:10;3.78;;;3.35;;
10586;SDS011;5341;47.606;7.576;2022-11-13T12:44:12;3.90;;;3.50;;
10586;SDS011;5341;47.606;7.576;2022-11-13T12:47:05;3.50;;;3.20;;
10586;SDS011;5341;47.606;7.576;2022-11-13T12:50:00;4.78;;;3.28;;
10586;SDS011;5341;47.606;7.576;2022-11-13T12:52:59;3.35;;;3.05;;
10586;SDS011;5341;47.606;7.576;2022-11-13T12:55:54;4.70;;;3.20;;
10586;SDS011;5341;47.606;7.576;2022-11-13T12:58:51;4.00;;;3.38;;
10586;SDS011;5341;47.606;7.576;2022-11-13T13:01:44;3.72;;;3.15;;
10586;SDS011;5341;47.606;7.576;2022-11-13T13:04:38;3.67;;;3.15;;
10586;SDS011;5341;47.606;7.576;2022-11-13T13:07:43;4.03;;;3.30;;
10586;SDS011;5341;47.606;7.576;2022-11-13T13:10:56;3.20;;;2.90;;
10586;SDS011;5341;47.606;7.576;2022-11-13T13:14:03;3.85;;;3.15;;
10586;SDS011;5341;47.606;7.576;2022-11-13T13:17:16;3.70;;;3.40;;
10586;SDS011;5341;47.606;7.576;2022-11-13T13:20:04;3.78;;;3.42;;
10586;SDS011;5341;47.606;7.576;2022-11-13T13:23:12;3.70;;;3.30;;
10586;SDS011;5341;47.606;7.576;2022-11-13T13:26:15;3.90;;;3.50;;
10586;SDS011;5341;47.606;7.576;2022-11-13T13:29:07;4.63;;;3.83;;
10586;SDS011;5341;47.606;7.576;2022-11-13T13:32:03;4.43;;;3.80;;
10586;SDS011;5341;47.606;7.576;2022-11-13T13:35:03;4.00;;;3.60;;
10586;SDS011;5341;47.606;7.576;2022-11-13T13:37:55;4.28;;;3.88;;
10586;SDS011;5341;47.606;7.576;2022-11-13T13:40:50;4.25;;;3.85;;
10586;SDS011;5341;47.606;7.576;2022-11-13T13:43:52;4.03;;;3.60;;
10586;SDS011;5341;47.606;7.576;2022-11-13T13:46:44;3.70;;;3.35;;
10586;SDS011;5341;47.606;7.576;2022-11-13T13:49:31;3.92;;;3.50;;
10586;SDS011;5341;47.606;7.576;2022-11-13T13:52:19;4.85;;;3.92;;
10586;SDS011;5341;47.606;7.576;2022-11-13T13:55:15;4.55;;;3.90;;
10586;SDS011;5341;47.606;7.576;2022-11-13T13:58:03;5.93;;;4.55;;
10586;SDS011;5341;47.606;7.576;2022-11-13T14:00:56;4.40;;;4.00;;
10586;SDS011;5341;47.606;7.576;2022-11-13T14:04:01;5.18;;;4.03;;
10586;SDS011;5341;47.606;7.576;2022-11-13T14:06:49;5.55;;;4.22;;
10586;SDS011;5341;47.606;7.576;2022-11-13T14:09:37;4.45;;;3.90;;
10586;SDS011;5341;47.606;7.576;2022-11-13T14:12:23;4.35;;;3.72;;
10586;SDS011;5341;47.606;7.576;2022-11-13T14:15:19;5.07;;;4.18;;
10586;SDS011;5341;47.606;7.576;2022-11-13T14:18:17;4.97;;;4.05;;
10586;SDS011;5341;47.606;7.576;2022-11-13T14:21:11;4.35;;;3.95;;
10586;SDS011;5341;47.606;7.576;2022-11-13T14:24:00;4.38;;;3.50;;
10586;SDS011;5341;47.606;7.576;2022-11-13T14:26:49;4.57;;;3.97;;
10586;SDS011;5341;47.606;7.576;2022-11-13T14:29:39;4.22;;;3.70;;
10586;SDS011;5341;47.606;7.576;2022-11-13T14:32:33;4.22;;;3.83;;
10586;SDS011;5341;47.606;7.576;2022-11-13T14:35:30;4.22;;;3.70;;
10586;SDS011;5341;47.606;7.576;2022-11-13T14:38:23;5.55;;;3.95;;
10586;SDS011;5341;47.606;7.576;2022-11-13T14:41:18;5.03;;;4.53;;
10586;SDS011;5341;47.606;7.576;2022-11-13T14:44:10;4.25;;;3.85;;
10586;SDS011;5341;47.606;7.576;2022-11-13T14:47:00;4.53;;;4.13;;
10586;SDS011;5341;47.606;7.576;2022-11-13T14:49:48;4.50;;;4.10;;
10586;SDS011;5341;47.606;7.576;2022-11-13T14:52:37;4.78;;;3.80;;
10586;SDS011;5341;47.606;7.576;2022-11-13T14:55:23;4.22;;;3.83;;
10586;SDS011;5341;47.606;7.576;2022-11-13T14:58:11;6.10;;;4.00;;
10586;SDS011;5341;47.606;7.576;2022-11-13T15:01:11;4.40;;;4.00;;
10586;SDS011;5341;47.606;7.576;2022-11-13T15:04:01;4.65;;;3.83;;
10586;SDS011;5341;47.606;7.576;2022-11-13T15:06:47;4.50;;;3.70;;
10586;SDS011;5341;47.606;7.576;2022-11-13T15:09:37;4.07;;;3.67;;
10586;SDS011;5341;47.606;7.576;2022-11-13T15:12:26;4.93;;;4.43;;
10586;SDS011;5341;47.606;7.576;2022-11-13T15:15:15;4.93;;;4.20;;
10586;SDS011;5341;47.606;7.576;2022-11-13T15:18:14;5.18;;;4.38;;
10586;SDS011;5341;47.606;7.576;2022-11-13T15:21:02;5.05;;;4.30;;
10586;SDS011;5341;47.606;7.576;2022-11-13T15:23:49;4.38;;;3.97;;
10586;SDS011;5341;47.606;7.576;2022-11-13T15:26:37;5.20;;;4.30;;
10586;SDS011;5341;47.606;7.576;2022-11-13T15:29:23;4.32;;;3.92;;
10586;SDS011;5341;47.606;7.576;2022-11-13T15:32:11;4.22;;;3.83;;
10586;SDS011;5341;47.606;7.576;2022-11-13T15:34:58;4.97;;;4.20;;
10586;SDS011;5341;47.606;7.576;2022-11-13T15:37:45;4.32;;;3.70;;
10586;SDS011;5341;47.606;7.576;2022-11-13T15:40:31;4.10;;;3.70;;
10586;SDS011;5341;47.606;7.576;2022-11-13T15:43:19;6.00;;;4.20;;
10586;SDS011;5341;47.606;7.576;2022-11-13T15:46:09;4.90;;;4.40;;
10586;SDS011;5341;47.606;7.576;2022-11-13T15:49:00;4.57;;;4.10;;
10586;SDS011;5341;47.606;7.576;2022-11-13T15:51:52;4.65;;;4.03;;
10586;SDS011;5341;47.606;7.576;2022-11-13T15:54:42;5.80;;;4.57;;
10586;SDS011;5341;47.606;7.576;2022-11-13T15:57:29;5.00;;;4.15;;
10586;SDS011;5341;47.606;7.576;2022-11-13T16:00:27;4.97;;;4.45;;
10586;SDS011;5341;47.606;7.576;2022-11-13T16:03:25;4.72;;;4.25;;
10586;SDS011;5341;47.606;7.576;2022-11-13T16:06:13;4.68;;;4.18;;
10586;SDS011;5341;47.606;7.576;2022-11-13T16:09:05;5.75;;;4.38;;
10586;SDS011;5341;47.606;7.576;2022-11-13T16:11:57;5.30;;;4.75;;
10586;SDS011;5341;47.606;7.576;2022-11-13T16:14:45;5.00;;;4.50;;
10586;SDS011;5341;47.606;7.576;2022-11-13T16:17:32;4.75;;;4.32;;
10586;SDS011;5341;47.606;7.576;2022-11-13T16:20:26;5.90;;;4.90;;
10586;SDS011;5341;47.606;7.576;2022-11-13T16:23:14;4.90;;;4.40;;
10586;SDS011;5341;47.606;7.576;2022-11-13T16:26:02;4.85;;;4.35;;
10586;SDS011;5341;47.606;7.576;2022-11-13T16:28:49;6.65;;;4.68;;
10586;SDS011;5341;47.606;7.576;2022-11-13T16:31:36;4.82;;;4.32;;
10586;SDS011;5341;47.606;7.576;2022-11-13T16:34:26;5.60;;;4.63;;
10586;SDS011;5341;47.606;7.576;2022-11-13T16:37:14;8.20;;;4.70;;
10586;SDS011;5341;47.606;7.576;2022-11-13T16:40:03;5.88;;;4.78;;
10586;SDS011;5341;47.606;7.576;2022-11-13T16:43:02;5.57;;;4.70;;
10586;SDS011;5341;47.606;7.576;2022-11-13T16:45:48;5.72;;;4.82;;
10586;SDS011;5341;47.606;7.576;2022-11-13T16:48:37;6.88;;;5.40;;
10586;SDS011;5341;47.606;7.576;2022-11-13T16:51:27;5.38;;;4.88;;
10586;SDS011;5341;47.606;7.576;2022-11-13T16:54:14;6.03;;;4.60;;
10586;SDS011;5341;47.606;7.576;2022-11-13T16:57:03;6.72;;;4.90;;
10586;SDS011;5341;47.606;7.576;2022-11-13T16:59:52;5.38;;;4.80;;
10586;SDS011;5341;47.606;7.576;2022-11-13T17:02:43;6.20;;;5.15;;
10586;SDS011;5341;47.606;7.576;2022-11-13T17:05:32;5.60;;;5.00;;
10586;SDS011;5341;47.606;7.576;2022-11-13T17:08:23;5.45;;;4.95;;
10586;SDS011;5341;47.606;7.576;2022-11-13T17:11:09;7.35;;;5.07;;
10586;SDS011;5341;47.606;7.576;2022-11-13T17:13:58;5.93;;;5.28;;
10586;SDS011;5341;47.606;7.576;2022-11-13T17:16:46;5.78;;;5.18;;